Detall de PIREP

Printer-friendly versionPDF version

[2010/10/23 21:16:00]
Flight IATA:CT2215
Pilot Number:026
Company ICAO:CAT
Aircraft Type:DC85/A
PAX:132
Departing Airport: LFOT
Destination Airport: LFMP
Alternate Airport:LFBO
Online: VATSIM
Route:AMB UN859 GAI/N300F190 G36 ORBIL
Flight Level:FL290
No Slew and time accel
No pause
Crash detect
Detect pilot in Cockpit between each 30 and 45 minutes
21:16 Zero fuel Weight: 177723 Lbs, Fuel Weight: 23988 Lbs
21:16 VATSIM:LFOT 232100Z 26004KT 9999 FEW027 SCT066 BKN250 10/08 Q1011 NOSIG
21:16 VATSIM:LFMP 232100Z AUTO 25004KT 9999NDV BKN088 13/12 Q1017
21:16 VOICE CATALONIAN / LFMP HUB RUOTE
21:23 Parking Brakes off
21:29 Take-off
21:29 Take off Weight: 200736 Lbs
21:29 Wind: 263º @ 004 Knots Heading: 014º
21:29 POS N47º 26´ 20´´ E000º 43´ 48´´
21:29 Flaps:2 at 181 Knots
21:29 Gear Up: 182 Knots
21:29 Flaps:1 at 208 Knots
21:30 Flaps:0 at 235 Knots
21:43 TOC
21:43 Fuel Weight: 18478 Lb
21:44 Wind:262º@023 Knots Heading: 156º Ground Speed: 461 Knots Altitude 29133 ft
21:56 TOD
21:56 Fuel Weight: 14814 Lb
21:59 Wind:230º@008 Knots Heading: 171º Ground Speed: 460 Knots Altitude 26827 ft
22:14 Wind:230º@003 Knots Heading: 148º Ground Speed: 264 Knots Altitude 5915 ft
22:22 Flaps:1 at 187 Knots
22:24 Gear Down: 166 Knots
22:25 Flaps:2 at 159 Knots
22:26 Flaps:3 at 158 Knots
22:26 Flaps:4 at 157 Knots
22:27 Flaps:5 at 151 Knots
22:27 TouchDown:Rate -254 ft/min Speed: 125 Knots
22:27 VATSIM:LFMP 232200Z AUTO 29002KT 9999NDV FEW064 SCT086 13/11 Q1016
22:27 Land
22:27 Wind:293º@002 Knots
22:27 Heading: 324º
22:27 Flight Duration: 00:58
22:27 Landing Weight: 189258 Lbs
22:27 POS N42º 44´ 57´´ E002º 51´ 56´´
22:31 Parking brakes on
22:31 Block to Block Duration: 01:08
22:31 Final Fuel: 11170 Lbls
22:31 Spent Fuel: 12817 Lbls
22:31 Flight Length: 345 NM
22:31 TOD Land Length: 158 NM

Exportar CSV

Powered by Drupal - Modified by Danger4k